Barrington Passage, Canada
Current Conditions -  °F | °C
As of 11:00 PM on Friday 21 Nov 2014 (Local Time) from CYQI Reporting Station
Broken Clouds Broken Clouds  
Wind Chill: 14°   Ceiling: 3500
Heat Index: 28°   Visibility: 15mi
Dew Point: 18°   Wind: 23mph
Humidity: 64%   Direction: 330°NNW
Pressure: 30.16"   Gusts: 36mph
Location:  43.52°N, 65.6°W
Report Text: CYQI 220300Z 33020G31KT 15SM BKN035 M02/M08 A3016 RMK SC6 SLP216
Loading
Personal Weather Stations






























Interactive Weather Map New forecast layout! Learn more

10-Day Weather Forecast

Advertisements
Track Severe Weather on mobile